Time;durP1;ratioP1;P1;durP2;ratioP2;P2;SDS_P1;SDS_P2;PMS_P1;PMS_P2;Temp;Humidity;BMP_temperature;BMP_pressure;BME280_temperature;BME280_humidity;BME280_pressure;Samples;Min_cycle;Max_cycle;Signal;HPM_P1;HPM_P2
2023/07/15 00:01:31;;;;;;;1.40;1.30;;;24.70;45.30;;;;;;4997496;28;20236;-63
2023/07/15 00:03:57;;;;;;;1.40;1.30;;;24.70;45.30;;;;;;4994600;28;20486;-64
2023/07/15 00:06:24;;;;;;;1.47;1.37;;;24.70;45.30;;;;;;4996285;28;20465;-63
2023/07/15 00:08:51;;;;;;;1.60;1.50;;;24.70;45.30;;;;;;4996098;28;20477;-63
2023/07/15 00:11:39;;;;;;;1.40;1.30;;;24.70;45.30;;;;;;4997364;28;20992;-63
2023/07/15 00:14:17;;;;;;;1.40;1.30;;;24.70;45.30;;;;;;4992584;28;20836;-64
2023/07/15 00:16:43;;;;;;;1.40;1.30;;;24.70;45.30;;;;;;4996486;28;20452;-65
2023/07/15 00:19:08;;;;;;;1.50;1.40;;;24.70;45.30;;;;;;4997989;28;20461;-63
2023/07/15 00:21:34;;;;;;;1.53;1.43;;;24.70;45.30;;;;;;4996200;28;20657;-64
2023/07/15 00:24:00;;;;;;;1.33;1.23;;;24.70;45.30;;;;;;4993808;28;20326;-63
2023/07/15 00:26:29;;;;;;;1.50;1.40;;;24.70;45.30;;;;;;4997768;28;20561;-63
2023/07/15 00:28:55;;;;;;;1.47;1.37;;;24.70;45.20;;;;;;4996357;28;20228;-63
2023/07/15 00:31:22;;;;;;;1.53;1.43;;;24.70;45.30;;;;;;4997659;28;20802;-63
2023/07/15 00:33:48;;;;;;;1.40;1.30;;;24.70;45.20;;;;;;4998354;28;20222;-64
2023/07/15 00:36:15;;;;;;;1.40;1.30;;;24.70;45.40;;;;;;4998258;28;20456;-63
2023/07/15 00:38:42;;;;;;;1.50;1.40;;;24.70;45.30;;;;;;4993796;28;20247;-63
2023/07/15 00:41:20;;;;;;;1.37;1.27;;;24.70;45.20;;;;;;4995903;28;20966;-63
2023/07/15 00:44:05;;;;;;;1.50;1.40;;;24.70;45.30;;;;;;4994541;28;20527;-62
2023/07/15 00:46:36;;;;;;;1.70;1.60;;;24.70;45.30;;;;;;4996656;28;20469;-62
2023/07/15 00:49:22;;;;;;;1.53;1.40;;;24.70;45.30;;;;;;4996055;28;20531;-63
2023/07/15 00:52:01;;;;;;;1.60;1.50;;;24.70;45.30;;;;;;4995166;28;20462;-63
2023/07/15 00:54:28;;;;;;;1.43;1.33;;;24.70;45.30;;;;;;4996224;28;20472;-62
2023/07/15 00:56:56;;;;;;;1.50;1.40;;;24.70;45.30;;;;;;4998927;28;20460;-63
2023/07/15 00:59:22;;;;;;;1.50;1.40;;;24.70;45.20;;;;;;4993244;28;20472;-64
2023/07/15 01:01:49;;;;;;;1.60;1.50;;;24.70;45.30;;;;;;5002428;28;20515;-63
2023/07/15 01:04:15;;;;;;;1.70;1.60;;;24.70;45.30;;;;;;4999492;28;20460;-63
2023/07/15 01:06:45;;;;;;;1.70;1.60;;;24.70;45.30;;;;;;4995541;28;20450;-63
2023/07/15 01:09:11;;;;;;;1.43;1.33;;;24.70;45.20;;;;;;4975931;28;20519;-63
2023/07/15 01:11:36;;;;;;;1.40;1.30;;;24.70;45.30;;;;;;4999442;28;20897;-63
2023/07/15 01:14:02;;;;;;;1.47;1.37;;;24.70;45.20;;;;;;4996707;28;21007;-62
2023/07/15 01:16:28;;;;;;;1.13;1.13;;;24.70;45.20;;;;;;4996327;28;20231;-64
2023/07/15 01:18:55;;;;;;;1.83;1.50;;;24.70;45.20;;;;;;4994385;28;20231;-63
2023/07/15 01:21:21;;;;;;;1.33;1.23;;;24.70;45.20;;;;;;4998501;28;20767;-63
2023/07/15 01:23:47;;;;;;;1.50;1.40;;;24.70;45.20;;;;;;4995594;28;20477;-63
2023/07/15 01:26:13;;;;;;;1.63;1.53;;;24.70;45.20;;;;;;4998452;28;20924;-63
2023/07/15 01:28:38;;;;;;;1.50;1.40;;;24.70;45.20;;;;;;4996476;28;20610;-64
2023/07/15 01:31:04;;;;;;;1.50;1.40;;;24.70;45.20;;;;;;4997140;28;20227;-63
2023/07/15 01:33:30;;;;;;;1.50;1.40;;;24.70;45.20;;;;;;4996744;28;20219;-63
2023/07/15 01:35:56;;;;;;;1.67;1.57;;;24.70;45.20;;;;;;4997384;28;20462;-64
2023/07/15 01:38:22;;;;;;;1.60;1.50;;;24.70;45.20;;;;;;4995905;28;20457;-64
2023/07/15 01:40:47;;;;;;;1.40;1.30;;;24.70;45.10;;;;;;4999892;28;20265;-64
2023/07/15 01:43:13;;;;;;;1.60;1.50;;;24.70;45.10;;;;;;4996307;28;20219;-63
2023/07/15 01:45:39;;;;;;;1.60;1.50;;;24.70;45.10;;;;;;5001898;28;20667;-63
2023/07/15 01:48:06;;;;;;;1.53;1.43;;;24.70;45.10;;;;;;4995832;28;20228;-63
2023/07/15 01:50:31;;;;;;;1.77;1.67;;;24.70;45.10;;;;;;4984148;28;20463;-64
2023/07/15 01:52:58;;;;;;;1.73;1.63;;;24.70;45.10;;;;;;4994589;28;20461;-63
2023/07/15 01:55:24;;;;;;;1.60;1.50;;;24.70;45.10;;;;;;4997169;28;20830;-63
2023/07/15 01:57:49;;;;;;;1.80;1.70;;;24.70;45.10;;;;;;4995276;28;20457;-63
2023/07/15 02:00:20;;;;;;;1.80;1.70;;;24.70;45.10;;;;;;4997468;28;20314;-63
2023/07/15 02:02:46;;;;;;;1.67;1.57;;;24.60;45.00;;;;;;4994623;28;20736;-63
2023/07/15 02:05:11;;;;;;;1.60;1.50;;;24.70;45.00;;;;;;4998249;28;20468;-63
2023/07/15 02:07:37;;;;;;;1.50;1.40;;;24.70;45.00;;;;;;4997435;28;20219;-63
2023/07/15 02:10:03;;;;;;;1.60;1.50;;;24.60;44.90;;;;;;4996932;28;20223;-63
2023/07/15 02:12:28;;;;;;;1.60;1.50;;;24.70;45.10;;;;;;4998159;28;20231;-63
2023/07/15 02:14:54;;;;;;;1.70;1.60;;;24.70;45.00;;;;;;4997449;28;20591;-64
2023/07/15 02:17:23;;;;;;;1.50;1.40;;;24.70;45.00;;;;;;4997554;28;20224;-63
2023/07/15 02:19:52;;;;;;;1.60;1.50;;;24.70;45.00;;;;;;4995644;28;20231;-63
2023/07/15 02:22:18;;;;;;;1.80;1.70;;;24.60;45.00;;;;;;4997562;28;21126;-63
2023/07/15 02:24:44;;;;;;;1.70;1.60;;;24.60;44.90;;;;;;4996055;28;20481;-63
2023/07/15 02:27:09;;;;;;;1.30;1.20;;;24.70;45.00;;;;;;4998628;28;20946;-63
2023/07/15 02:29:35;;;;;;;1.50;1.40;;;24.70;45.00;;;;;;4997595;28;20223;-63
2023/07/15 02:32:02;;;;;;;2.60;1.50;;;24.60;44.90;;;;;;4994180;28;20627;-64
2023/07/15 02:34:27;;;;;;;1.60;1.50;;;24.70;45.10;;;;;;4994873;28;20234;-63
2023/07/15 02:36:53;;;;;;;1.40;1.30;;;24.70;45.10;;;;;;4996355;28;20460;-64
2023/07/15 02:39:18;;;;;;;1.50;1.40;;;24.60;45.00;;;;;;4994024;28;20290;-63
2023/07/15 02:41:44;;;;;;;1.73;1.63;;;24.60;45.00;;;;;;4997304;28;21036;-63
2023/07/15 02:44:10;;;;;;;1.63;1.53;;;24.70;45.10;;;;;;4995896;28;20737;-63
2023/07/15 02:46:35;;;;;;;2.80;1.93;;;24.60;45.00;;;;;;4999489;28;20219;-63
2023/07/15 02:49:01;;;;;;;1.60;1.50;;;24.60;45.00;;;;;;4994713;28;20739;-65
2023/07/15 02:51:27;;;;;;;1.50;1.40;;;24.60;45.10;;;;;;4996128;28;20317;-63
2023/07/15 02:53:53;;;;;;;1.63;1.53;;;24.60;45.10;;;;;;4993395;28;20223;-63
2023/07/15 02:56:18;;;;;;;1.40;1.30;;;24.60;45.00;;;;;;4996334;28;20864;-64
2023/07/15 02:58:44;;;;;;;1.77;1.67;;;24.60;45.10;;;;;;4991925;28;20829;-63
2023/07/15 03:01:09;;;;;;;1.50;1.40;;;24.60;45.10;;;;;;4995960;28;20222;-63
2023/07/15 03:03:38;;;;;;;1.50;1.40;;;24.70;45.20;;;;;;4995944;28;20235;-63
2023/07/15 03:06:04;;;;;;;1.47;1.37;;;24.60;45.10;;;;;;4998614;28;20254;-63
2023/07/15 03:08:29;;;;;;;1.60;1.50;;;24.60;45.10;;;;;;4995229;28;20507;-63
2023/07/15 03:10:55;;;;;;;1.50;1.40;;;24.70;45.20;;;;;;4998616;28;20779;-63
2023/07/15 03:13:21;;;;;;;1.50;1.40;;;24.60;45.10;;;;;;4993908;28;20220;-63
2023/07/15 03:15:47;;;;;;;1.63;1.53;;;24.60;45.10;;;;;;4995648;28;20674;-63
2023/07/15 03:18:12;;;;;;;1.40;1.30;;;24.70;45.20;;;;;;4995475;28;20705;-63
2023/07/15 03:20:38;;;;;;;1.60;1.50;;;24.60;45.10;;;;;;4992612;28;20236;-63
2023/07/15 03:23:04;;;;;;;1.30;1.20;;;24.60;45.60;;;;;;4994940;28;20243;-63
2023/07/15 03:25:30;;;;;;;1.50;1.40;;;24.60;45.10;;;;;;4995459;28;20234;-65
2023/07/15 03:27:55;;;;;;;1.60;1.50;;;24.60;46.00;;;;;;4995790;28;20219;-63
2023/07/15 03:30:21;;;;;;;1.33;1.23;;;24.60;45.20;;;;;;4995733;28;20629;-63
2023/07/15 03:32:47;;;;;;;1.50;1.40;;;24.60;45.20;;;;;;4996151;28;20223;-63
2023/07/15 03:35:13;;;;;;;1.47;1.37;;;24.60;45.20;;;;;;4996336;28;20224;-63
2023/07/15 03:37:42;;;;;;;1.53;1.43;;;24.60;45.20;;;;;;4994691;28;20763;-63
2023/07/15 03:40:10;;;;;;;1.67;1.57;;;24.60;45.20;;;;;;4996817;28;20764;-63
2023/07/15 03:42:36;;;;;;;1.40;1.30;;;24.60;45.30;;;;;;4997871;28;20456;-63
2023/07/15 03:45:03;;;;;;;1.60;1.50;;;24.70;45.50;;;;;;4996282;28;20461;-63
2023/07/15 03:47:28;;;;;;;1.40;1.30;;;24.60;45.30;;;;;;4997439;28;20463;-63
2023/07/15 03:49:54;;;;;;;1.60;1.50;;;24.60;45.30;;;;;;4999544;28;20812;-64
2023/07/15 03:52:19;;;;;;;1.30;1.20;;;24.60;45.30;;;;;;4997101;28;20219;-63
2023/07/15 03:54:45;;;;;;;1.40;1.30;;;24.60;45.30;;;;;;4999713;28;20743;-63
2023/07/15 03:57:11;;;;;;;1.40;1.30;;;24.60;45.40;;;;;;4999038;28;20218;-63
2023/07/15 03:59:36;;;;;;;1.67;1.57;;;24.60;45.30;;;;;;5000013;28;20231;-63
2023/07/15 04:02:03;;;;;;;1.50;1.40;;;24.60;45.40;;;;;;5001918;28;20255;-64
2023/07/15 04:04:29;;;;;;;1.50;1.40;;;24.60;45.30;;;;;;4995905;28;20227;-63
2023/07/15 04:06:55;;;;;;;1.50;1.40;;;24.60;45.40;;;;;;4997020;28;20821;-63
2023/07/15 04:09:21;;;;;;;1.40;1.30;;;24.60;45.40;;;;;;4995537;28;20219;-64
2023/07/15 04:11:46;;;;;;;1.53;1.43;;;24.60;45.40;;;;;;5001234;28;20463;-64
2023/07/15 04:14:12;;;;;;;1.27;1.20;;;24.60;45.50;;;;;;4994801;28;20448;-62
2023/07/15 04:16:39;;;;;;;1.40;1.30;;;24.60;45.40;;;;;;4999204;28;20219;-63
2023/07/15 04:19:05;;;;;;;1.30;1.20;;;24.60;45.50;;;;;;4995411;28;20865;-63
2023/07/15 04:21:31;;;;;;;1.27;1.23;;;24.60;45.50;;;;;;5003241;28;20637;-63
2023/07/15 04:23:57;;;;;;;1.30;1.20;;;24.60;45.50;;;;;;4999949;28;20242;-62
2023/07/15 04:26:24;;;;;;;1.40;1.30;;;24.60;45.50;;;;;;4984719;28;20453;-63
2023/07/15 04:28:50;;;;;;;1.50;1.40;;;24.60;45.40;;;;;;4997006;28;20544;-64
2023/07/15 04:31:16;;;;;;;1.40;1.30;;;24.60;45.50;;;;;;5000611;28;20560;-62
2023/07/15 04:33:46;;;;;;;2.03;1.20;;;24.60;45.40;;;;;;4998439;28;20768;-63
2023/07/15 04:36:12;;;;;;;1.40;1.30;;;24.60;45.50;;;;;;4999145;28;20798;-62
2023/07/15 04:38:37;;;;;;;1.30;1.20;;;24.60;45.40;;;;;;4997002;28;20460;-62
2023/07/15 04:41:03;;;;;;;1.53;1.43;;;24.60;45.50;;;;;;5000308;28;20314;-63
2023/07/15 04:43:28;;;;;;;1.37;1.27;;;24.70;45.60;;;;;;4995776;28;20231;-63
2023/07/15 04:45:54;;;;;;;1.40;1.30;;;24.60;45.50;;;;;;4998033;28;20231;-62
2023/07/15 04:48:20;;;;;;;1.43;1.33;;;24.60;46.20;;;;;;4996528;28;20223;-62
2023/07/15 04:50:45;;;;;;;1.27;1.17;;;24.60;45.40;;;;;;4997224;28;20263;-64
2023/07/15 04:53:11;;;;;;;1.50;1.40;;;24.60;45.50;;;;;;4970935;28;20252;-64
2023/07/15 04:55:37;;;;;;;1.50;1.40;;;24.70;45.50;;;;;;4995787;28;20318;-63
2023/07/15 04:58:03;;;;;;;1.50;1.40;;;24.70;45.50;;;;;;4997412;28;20690;-62
2023/07/15 05:00:29;;;;;;;1.40;1.30;;;24.70;45.50;;;;;;4998382;28;20230;-64
2023/07/15 05:02:55;;;;;;;1.40;1.30;;;24.70;45.50;;;;;;4998909;28;20468;-62
2023/07/15 05:05:20;;;;;;;1.37;1.27;;;24.70;45.50;;;;;;4997795;28;20712;-62
2023/07/15 05:07:48;;;;;;;1.40;1.30;;;24.70;45.50;;;;;;4995250;28;20219;-63
2023/07/15 05:10:14;;;;;;;1.50;1.40;;;24.70;45.50;;;;;;4998863;28;20314;-63
2023/07/15 05:12:40;;;;;;;1.30;1.20;;;24.70;45.50;;;;;;4993369;28;20529;-62
2023/07/15 05:15:06;;;;;;;1.40;1.30;;;24.70;45.50;;;;;;4997932;28;20331;-63
2023/07/15 05:17:32;;;;;;;1.40;1.30;;;24.70;45.50;;;;;;4996345;28;20235;-62
2023/07/15 05:19:58;;;;;;;1.27;1.17;;;24.70;45.40;;;;;;4996801;28;20562;-63
2023/07/15 05:22:23;;;;;;;1.13;1.13;;;24.70;45.50;;;;;;4998631;28;20980;-62
2023/07/15 05:24:49;;;;;;;1.40;1.30;;;24.70;45.50;;;;;;4996764;28;20242;-64
2023/07/15 05:27:14;;;;;;;1.30;1.20;;;24.70;45.50;;;;;;4997319;28;20216;-63
2023/07/15 05:29:40;;;;;;;1.50;1.40;;;24.70;45.50;;;;;;4997952;28;20754;-63
2023/07/15 05:32:06;;;;;;;1.40;1.30;;;24.70;45.50;;;;;;5000814;28;20734;-63
2023/07/15 05:34:32;;;;;;;1.27;1.17;;;24.70;45.50;;;;;;4997200;28;20322;-63
2023/07/15 05:36:57;;;;;;;1.43;1.33;;;24.70;45.40;;;;;;4994940;28;20553;-63
2023/07/15 05:39:23;;;;;;;1.40;1.30;;;24.70;45.40;;;;;;4994846;28;20293;-64
2023/07/15 05:41:49;;;;;;;1.30;1.20;;;24.70;45.50;;;;;;4997480;28;20230;-63
2023/07/15 05:44:14;;;;;;;1.33;1.23;;;24.70;45.40;;;;;;4994602;28;20245;-62
2023/07/15 05:46:40;;;;;;;1.30;1.20;;;24.70;45.50;;;;;;5000057;28;20223;-62
2023/07/15 05:49:05;;;;;;;1.27;1.17;;;24.70;45.50;;;;;;4997097;28;20219;-65
2023/07/15 05:51:31;;;;;;;1.60;1.50;;;24.70;45.40;;;;;;4996143;28;20235;-62
2023/07/15 05:53:57;;;;;;;1.50;1.40;;;24.70;45.50;;;;;;4997249;28;20223;-62
2023/07/15 05:56:23;;;;;;;1.30;1.20;;;24.70;45.40;;;;;;5000161;28;21117;-62
2023/07/15 05:58:50;;;;;;;1.40;1.30;;;24.70;45.40;;;;;;4998873;28;20238;-63
2023/07/15 06:01:16;;;;;;;1.33;1.23;;;24.70;45.40;;;;;;4995777;28;20671;-62
2023/07/15 06:03:41;;;;;;;1.37;1.27;;;24.70;45.40;;;;;;4993330;28;20538;-63
2023/07/15 06:06:07;;;;;;;1.40;1.30;;;24.70;45.50;;;;;;4997939;28;20228;-63
2023/07/15 06:08:33;;;;;;;1.20;1.10;;;24.70;45.50;;;;;;4999744;28;20242;-63
2023/07/15 06:10:58;;;;;;;1.47;1.37;;;24.70;45.50;;;;;;4994476;28;20269;-63
2023/07/15 06:13:24;;;;;;;1.30;1.20;;;24.70;45.50;;;;;;4985918;28;20227;-62
2023/07/15 06:15:50;;;;;;;1.47;1.37;;;24.70;45.50;;;;;;4997515;28;20592;-62
2023/07/15 06:18:16;;;;;;;1.00;1.00;;;24.70;45.40;;;;;;4995182;28;20223;-63
2023/07/15 06:20:42;;;;;;;1.40;1.30;;;24.80;45.50;;;;;;4995751;28;20512;-63
2023/07/15 06:23:08;;;;;;;1.63;1.53;;;24.70;45.40;;;;;;4996090;28;20494;-63
2023/07/15 06:25:34;;;;;;;1.37;1.27;;;24.70;45.40;;;;;;4997619;28;20456;-63
2023/07/15 06:27:59;;;;;;;1.37;1.27;;;24.70;45.30;;;;;;4998176;28;20237;-63
2023/07/15 06:30:26;;;;;;;1.40;1.30;;;24.80;45.50;;;;;;4995432;28;20773;-62
2023/07/15 06:32:52;;;;;;;1.47;1.37;;;24.80;45.50;;;;;;4996234;28;20363;-62
2023/07/15 06:35:17;;;;;;;1.20;1.10;;;24.80;45.40;;;;;;4997118;28;20536;-63
2023/07/15 06:37:46;;;;;;;1.20;1.10;;;24.80;45.50;;;;;;4994948;28;20524;-62
2023/07/15 06:40:15;;;;;;;1.50;1.40;;;24.80;45.50;;;;;;4994665;28;20224;-63
2023/07/15 06:42:40;;;;;;;1.30;1.20;;;24.80;45.50;;;;;;4995535;28;20448;-62
2023/07/15 06:45:06;;;;;;;1.20;1.10;;;24.80;45.50;;;;;;4996969;28;20607;-62
2023/07/15 06:47:32;;;;;;;1.20;1.10;;;24.80;45.50;;;;;;4997712;28;20228;-62
2023/07/15 06:49:57;;;;;;;1.33;1.23;;;24.80;45.50;;;;;;4993993;28;20335;-62
2023/07/15 06:52:23;;;;;;;1.00;1.00;;;24.80;45.40;;;;;;4993228;28;20230;-64
2023/07/15 06:54:50;;;;;;;1.00;1.00;;;24.80;45.40;;;;;;4996448;28;20230;-62
2023/07/15 06:57:15;;;;;;;1.30;1.20;;;24.80;45.40;;;;;;4996779;28;20230;-63
2023/07/15 06:59:41;;;;;;;1.40;1.30;;;24.80;45.40;;;;;;4995250;28;20448;-64
2023/07/15 07:02:07;;;;;;;1.40;1.30;;;24.80;45.40;;;;;;4997314;28;20778;-63
2023/07/15 07:04:32;;;;;;;1.37;1.27;;;24.80;45.40;;;;;;4995696;28;20243;-63
2023/07/15 07:06:58;;;;;;;1.37;1.27;;;24.80;45.40;;;;;;4995813;28;20331;-62
2023/07/15 07:09:23;;;;;;;1.43;1.33;;;24.80;45.50;;;;;;4994766;28;20238;-63
2023/07/15 07:11:49;;;;;;;1.27;1.17;;;24.80;45.40;;;;;;4994887;28;20234;-63
2023/07/15 07:14:14;;;;;;;1.30;1.20;;;24.80;45.50;;;;;;4993709;28;20233;-62
2023/07/15 07:16:40;;;;;;;1.40;1.30;;;24.80;45.50;;;;;;4993108;28;20239;-62
2023/07/15 07:19:05;;;;;;;1.40;1.30;;;24.80;45.40;;;;;;4993939;28;20219;-63
2023/07/15 07:21:31;;;;;;;1.50;1.40;;;24.80;45.40;;;;;;4984816;28;20227;-62
2023/07/15 07:23:56;;;;;;;1.10;1.10;;;24.80;45.40;;;;;;4999130;28;20223;-63
2023/07/15 07:26:22;;;;;;;1.33;1.23;;;24.80;45.40;;;;;;4992499;28;20234;-62
2023/07/15 07:28:48;;;;;;;1.13;1.03;;;24.80;45.40;;;;;;4996586;28;20227;-63
2023/07/15 07:31:16;;;;;;;1.30;1.20;;;24.80;45.40;;;;;;5000547;28;20224;-63
2023/07/15 07:33:41;;;;;;;1.10;1.07;;;24.80;45.40;;;;;;4992979;28;20876;-63
2023/07/15 07:36:07;;;;;;;1.33;1.23;;;24.80;45.40;;;;;;5002722;28;20453;-62
2023/07/15 07:38:33;;;;;;;1.20;1.10;;;24.80;45.40;;;;;;4997720;28;20260;-62
2023/07/15 07:41:12;;;;;;;1.40;1.30;;;24.80;45.40;;;;;;4999944;28;20243;-63
2023/07/15 07:43:39;;;;;;;1.20;1.10;;;24.80;45.50;;;;;;4995446;28;20486;-63
2023/07/15 07:46:08;;;;;;;1.20;1.10;;;24.80;45.50;;;;;;4999783;28;20444;-62
2023/07/15 07:48:33;;;;;;;1.20;1.10;;;24.80;45.50;;;;;;4997083;28;20446;-62
2023/07/15 07:50:59;;;;;;;1.30;1.20;;;24.80;45.50;;;;;;4998840;28;20463;-63
2023/07/15 07:53:25;;;;;;;1.17;1.10;;;24.80;45.50;;;;;;4996869;28;20314;-62
2023/07/15 07:55:51;;;;;;;1.30;1.10;;;24.80;45.40;;;;;;5000197;28;20564;-63
2023/07/15 07:58:17;;;;;;;1.20;1.10;;;24.80;45.40;;;;;;4996337;28;20460;-63
2023/07/15 08:00:43;;;;;;;1.30;1.20;;;24.80;45.40;;;;;;4998689;28;20453;-63
2023/07/15 08:03:09;;;;;;;1.30;1.20;;;24.80;45.40;;;;;;4998790;28;20313;-63
2023/07/15 08:05:39;;;;;;;1.20;1.10;;;24.80;45.40;;;;;;4999882;28;20238;-64
2023/07/15 08:08:05;;;;;;;1.20;1.10;;;24.80;45.40;;;;;;4996212;28;20215;-63
2023/07/15 08:10:30;;;;;;;1.30;1.20;;;24.80;45.50;;;;;;5002094;28;20453;-63
2023/07/15 08:12:56;;;;;;;1.23;1.13;;;24.80;45.40;;;;;;4983904;28;20713;-63
2023/07/15 08:15:21;;;;;;;1.20;1.10;;;24.80;45.40;;;;;;4999018;28;20223;-63
2023/07/15 08:17:47;;;;;;;1.07;1.00;;;24.80;45.40;;;;;;4995128;28;20230;-62
2023/07/15 08:20:12;;;;;;;0.93;0.93;;;24.80;45.40;;;;;;4998899;28;20304;-62
2023/07/15 08:22:38;;;;;;;1.30;1.20;;;24.80;45.50;;;;;;4999018;28;20223;-62
2023/07/15 08:25:04;;;;;;;1.10;1.10;;;24.80;45.40;;;;;;4995434;28;20622;-62
2023/07/15 08:27:29;;;;;;;1.43;1.33;;;24.80;45.50;;;;;;5000693;28;20295;-63
2023/07/15 08:29:55;;;;;;;1.30;1.20;;;24.80;45.50;;;;;;4999046;28;20594;-63
2023/07/15 08:32:20;;;;;;;1.23;1.13;;;24.80;45.50;;;;;;4997582;28;20694;-62
2023/07/15 08:35:06;;;;;;;1.23;1.17;;;24.80;45.50;;;;;;4999722;28;20235;-63
2023/07/15 08:37:32;;;;;;;1.30;1.20;;;24.80;45.50;;;;;;4996079;28;20254;-62
2023/07/15 08:39:58;;;;;;;1.10;1.00;;;24.80;45.50;;;;;;4996268;28;21014;-64
2023/07/15 08:42:24;;;;;;;2.03;1.10;;;24.80;45.60;;;;;;4998441;28;20235;-62
2023/07/15 08:44:51;;;;;;;1.20;1.10;;;24.80;45.50;;;;;;4995575;28;20239;-63
2023/07/15 08:47:24;;;;;;;1.30;1.20;;;24.80;45.50;;;;;;4997758;28;20451;-64
2023/07/15 08:49:52;;;;;;;1.00;1.00;;;24.80;45.50;;;;;;4996242;28;20492;-62
2023/07/15 08:52:19;;;;;;;1.27;1.17;;;24.80;45.60;;;;;;4997262;28;20461;-63
2023/07/15 08:54:50;;;;;;;1.10;1.00;;;24.80;45.60;;;;;;4997603;28;20539;-63
2023/07/15 08:57:20;;;;;;;1.30;1.20;;;24.80;45.60;;;;;;4996885;28;20495;-64
2023/07/15 08:59:48;;;;;;;1.20;1.10;;;24.80;45.50;;;;;;4994911;28;20474;-62
2023/07/15 09:02:13;;;;;;;1.33;1.23;;;24.80;45.60;;;;;;5001122;28;20528;-64
2023/07/15 09:04:39;;;;;;;1.30;1.20;;;24.80;45.50;;;;;;4996781;28;20560;-63
2023/07/15 09:07:05;;;;;;;1.10;1.07;;;24.80;45.60;;;;;;4998422;28;20223;-63
2023/07/15 09:09:32;;;;;;;1.23;1.13;;;24.80;45.60;;;;;;4997122;28;20223;-63
2023/07/15 09:12:05;;;;;;;1.10;1.10;;;24.80;45.60;;;;;;4996557;28;20227;-63
2023/07/15 09:14:31;;;;;;;1.17;1.07;;;24.80;45.50;;;;;;4994466;28;20952;-63
2023/07/15 09:16:59;;;;;;;1.23;1.13;;;24.80;45.50;;;;;;4998365;28;20460;-63
2023/07/15 09:19:27;;;;;;;1.20;1.10;;;24.80;45.50;;;;;;4997353;28;20247;-63
2023/07/15 09:22:02;;;;;;;1.20;1.10;;;24.80;45.50;;;;;;4999172;28;20452;-63
2023/07/15 09:24:30;;;;;;;1.20;1.10;;;24.80;45.50;;;;;;4997358;28;20502;-62
2023/07/15 09:26:58;;;;;;;0.87;0.87;;;24.80;45.50;;;;;;4997393;28;20995;-63
2023/07/15 09:29:24;;;;;;;1.20;1.10;;;24.80;45.50;;;;;;4986019;28;20465;-64
2023/07/15 09:31:50;;;;;;;1.17;1.07;;;24.80;45.50;;;;;;4999894;28;20463;-63
2023/07/15 09:34:16;;;;;;;1.30;1.20;;;24.80;45.50;;;;;;4994137;28;20223;-62
2023/07/15 09:36:42;;;;;;;1.00;1.00;;;24.80;46.30;;;;;;4995872;28;20216;-63
2023/07/15 09:39:12;;;;;;;1.20;1.10;;;24.80;45.50;;;;;;4998055;28;20455;-64
2023/07/15 09:41:38;;;;;;;1.30;1.20;;;24.80;45.60;;;;;;4997963;28;20230;-62
2023/07/15 09:44:04;;;;;;;1.00;1.00;;;24.80;45.50;;;;;;4994176;28;20462;-64
2023/07/15 09:46:29;;;;;;;1.13;1.13;;;24.80;45.50;;;;;;4998851;28;20293;-62
2023/07/15 09:48:57;;;;;;;0.90;0.90;;;24.80;45.50;;;;;;4994256;28;20664;-64
2023/07/15 09:51:23;;;;;;;1.17;1.07;;;24.80;45.50;;;;;;4997193;28;20245;-64
2023/07/15 09:53:53;;;;;;;1.03;1.00;;;24.80;45.60;;;;;;4996969;28;20458;-63
2023/07/15 09:56:44;;;;;;;1.20;1.10;;;24.70;45.50;;;;;;4998157;28;20449;-64
2023/07/15 09:59:20;;;;;;;2.40;1.10;;;24.80;45.60;;;;;;4996284;28;20530;-63
2023/07/15 10:01:55;;;;;;;1.00;1.00;;;24.80;45.60;;;;;;4996641;28;20461;-63
2023/07/15 10:04:30;;;;;;;1.00;1.00;;;24.80;45.60;;;;;;4994462;28;20479;-63
2023/07/15 10:06:57;;;;;;;1.20;1.10;;;24.70;45.60;;;;;;4994432;28;20456;-63
2023/07/15 10:09:23;;;;;;;0.90;0.90;;;24.70;45.50;;;;;;4995326;28;20461;-63
2023/07/15 10:11:51;;;;;;;1.13;1.03;;;24.70;45.60;;;;;;4998568;28;20468;-63
2023/07/15 10:14:19;;;;;;;1.00;0.97;;;24.70;45.60;;;;;;4996661;28;20869;-63
2023/07/15 10:16:44;;;;;;;1.20;1.07;;;24.70;45.60;;;;;;4995355;28;20552;-62
2023/07/15 10:19:45;;;;;;;1.30;1.20;;;24.70;45.60;;;;;;4995894;28;20563;-62
2023/07/15 10:22:12;;;;;;;1.20;1.10;;;24.70;45.60;;;;;;4996163;28;20296;-62
2023/07/15 10:24:42;;;;;;;0.90;0.90;;;24.70;45.60;;;;;;4997699;28;20476;-63
2023/07/15 10:27:10;;;;;;;0.90;0.90;;;24.70;45.60;;;;;;4998434;28;20506;-62
2023/07/15 10:29:40;;;;;;;1.03;0.97;;;24.70;45.60;;;;;;4998258;28;20496;-64
2023/07/15 10:32:15;;;;;;;0.93;0.90;;;24.70;45.60;;;;;;4995965;28;20457;-63
2023/07/15 10:34:49;;;;;;;1.20;1.10;;;24.70;45.50;;;;;;4997590;28;20452;-64
2023/07/15 10:37:17;;;;;;;1.23;1.13;;;24.70;45.60;;;;;;4997539;28;20488;-62
2023/07/15 10:39:42;;;;;;;1.10;1.00;;;24.70;45.60;;;;;;4993790;28;20963;-63
2023/07/15 10:42:12;;;;;;;1.40;1.30;;;24.70;45.60;;;;;;4996257;28;20470;-63
2023/07/15 10:44:56;;;;;;;1.10;1.00;;;24.70;45.60;;;;;;4990971;28;20246;-65
2023/07/15 10:47:22;;;;;;;1.87;1.00;;;24.80;45.70;;;;;;4994471;28;20803;-64
2023/07/15 10:49:48;;;;;;;1.20;1.10;;;24.70;45.70;;;;;;4992618;28;20452;-63
2023/07/15 10:52:18;;;;;;;1.00;1.00;;;24.70;45.70;;;;;;4994063;28;20216;-63
2023/07/15 10:54:44;;;;;;;1.00;0.90;;;24.70;45.70;;;;;;4993993;28;20476;-62
2023/07/15 10:57:11;;;;;;;1.10;1.00;;;24.70;45.70;;;;;;4995597;28;20815;-63
2023/07/15 10:59:39;;;;;;;1.20;1.10;;;24.70;45.70;;;;;;4999436;28;20226;-64
2023/07/15 11:02:05;;;;;;;0.97;0.97;;;24.80;45.80;;;;;;5001823;28;20562;-64
2023/07/15 11:04:31;;;;;;;1.10;1.00;;;24.70;45.70;;;;;;4997357;28;20991;-63
2023/07/15 11:07:05;;;;;;;1.10;1.00;;;24.70;45.70;;;;;;5001160;28;20457;-62
2023/07/15 11:09:31;;;;;;;1.00;1.00;;;24.70;45.70;;;;;;4998604;28;20234;-62
2023/07/15 11:11:57;;;;;;;1.10;1.00;;;24.80;45.70;;;;;;4998282;28;21007;-63
2023/07/15 11:14:29;;;;;;;1.10;1.10;;;24.70;45.70;;;;;;4997112;28;20688;-63
2023/07/15 11:16:54;;;;;;;1.23;1.13;;;24.70;45.70;;;;;;4997079;28;20322;-62
2023/07/15 11:19:21;;;;;;;1.30;1.20;;;24.80;45.80;;;;;;4998960;28;20626;-64
2023/07/15 11:21:47;;;;;;;1.13;1.03;;;24.70;45.70;;;;;;5000697;28;20277;-63
2023/07/15 11:24:14;;;;;;;1.23;1.13;;;24.80;45.70;;;;;;4997679;28;20467;-63
2023/07/15 11:26:40;;;;;;;0.90;0.90;;;24.80;45.80;;;;;;5004835;28;20234;-64
2023/07/15 11:29:19;;;;;;;1.10;1.00;;;24.70;45.70;;;;;;4997933;28;20879;-64
2023/07/15 11:31:49;;;;;;;1.10;1.00;;;24.80;45.80;;;;;;4996993;28;20463;-64
2023/07/15 11:34:17;;;;;;;1.30;1.20;;;24.80;45.80;;;;;;4997316;28;20444;-62
2023/07/15 11:36:43;;;;;;;1.20;1.10;;;24.80;45.70;;;;;;4999402;28;20446;-63
2023/07/15 11:39:10;;;;;;;1.27;1.17;;;24.80;45.80;;;;;;4999672;28;20523;-62
2023/07/15 11:41:36;;;;;;;1.00;1.00;;;24.80;45.70;;;;;;4998702;28;20262;-62
2023/07/15 11:44:09;;;;;;;1.00;1.00;;;24.80;45.70;;;;;;4996581;28;20861;-62
2023/07/15 11:46:36;;;;;;;1.40;1.30;;;24.80;45.80;;;;;;4999784;28;20447;-63
2023/07/15 11:49:02;;;;;;;1.17;1.07;;;24.80;45.80;;;;;;4999194;28;20452;-63
2023/07/15 11:51:29;;;;;;;2.33;1.20;;;24.80;45.80;;;;;;5001053;28;20506;-63
2023/07/15 11:53:54;;;;;;;1.00;1.00;;;24.80;45.80;;;;;;4997637;28;20456;-64
2023/07/15 11:56:40;;;;;;;1.30;1.20;;;24.80;45.80;;;;;;4999880;28;20499;-64
2023/07/15 11:59:08;;;;;;;1.10;1.10;;;24.80;45.80;;;;;;4998257;28;20238;-63
2023/07/15 12:01:33;;;;;;;1.00;1.00;;;24.80;45.90;;;;;;5002454;28;20936;-62
2023/07/15 12:03:59;;;;;;;1.30;1.20;;;24.70;45.80;;;;;;5001122;28;20479;-62
2023/07/15 12:06:27;;;;;;;1.03;0.93;;;24.80;45.80;;;;;;4999454;28;20830;-63
2023/07/15 12:09:02;;;;;;;1.20;1.00;;;24.80;45.90;;;;;;4996843;28;20208;-63
2023/07/15 12:11:29;;;;;;;1.33;1.23;;;24.80;45.90;;;;;;4997377;28;20583;-62
2023/07/15 12:13:54;;;;;;;1.13;1.03;;;24.80;45.80;;;;;;4995763;28;20457;-63
2023/07/15 12:16:24;;;;;;;1.00;1.00;;;24.80;45.90;;;;;;4983587;28;20448;-62
2023/07/15 12:18:50;;;;;;;1.97;1.00;;;24.80;45.90;;;;;;4995594;28;20223;-63
2023/07/15 12:21:15;;;;;;;1.40;1.30;;;24.80;46.70;;;;;;4984030;28;20479;-63
2023/07/15 12:23:43;;;;;;;0.93;0.93;;;24.80;45.90;;;;;;4994254;28;20305;-63
2023/07/15 12:26:08;;;;;;;1.23;1.13;;;24.80;45.90;;;;;;4999729;28;20274;-63
2023/07/15 12:28:34;;;;;;;1.30;1.20;;;24.80;45.90;;;;;;4998161;28;20492;-62
2023/07/15 12:31:01;;;;;;;1.30;1.20;;;24.80;45.90;;;;;;4999754;28;20249;-63
2023/07/15 12:33:26;;;;;;;1.30;1.20;;;24.80;46.00;;;;;;4998083;28;20227;-62
2023/07/15 12:35:52;;;;;;;0.80;0.80;;;24.80;45.90;;;;;;4997140;28;20457;-62
2023/07/15 12:38:17;;;;;;;1.30;1.20;;;24.80;46.00;;;;;;4995868;28;20226;-62
2023/07/15 12:40:43;;;;;;;1.20;1.10;;;24.80;46.00;;;;;;4998717;28;20679;-63
2023/07/15 12:43:08;;;;;;;1.30;1.20;;;24.80;46.00;;;;;;4994990;28;20226;-64
2023/07/15 12:45:34;;;;;;;1.03;0.93;;;24.80;46.00;;;;;;4998241;28;20236;-63
2023/07/15 12:48:00;;;;;;;1.43;1.33;;;24.80;46.00;;;;;;4999990;28;25630;-62